createdAt,value
2023-04-04T00:00:32.673Z,-0.47
2023-04-04T00:03:00.579Z,-0.49
2023-04-04T00:05:28.785Z,-0.52
2023-04-04T00:07:56.703Z,-0.54
2023-04-04T00:10:25.868Z,-0.58
2023-04-04T00:12:53.664Z,-0.61
2023-04-04T00:15:22.221Z,-0.73
2023-04-04T00:17:50.587Z,-0.66
2023-04-04T00:20:18.563Z,-0.70
2023-04-04T00:22:46.417Z,-0.74
2023-04-04T00:25:14.512Z,-0.75
2023-04-04T00:27:43.981Z,-0.72
2023-04-04T00:30:12.854Z,-0.73
2023-04-04T00:32:40.757Z,-0.72
2023-04-04T00:35:09.289Z,-0.73
2023-04-04T00:37:37.923Z,-0.78
2023-04-04T00:40:06.720Z,-0.77
2023-04-04T00:42:35.090Z,-0.78
2023-04-04T00:45:04.431Z,-0.79
2023-04-04T00:47:32.791Z,-0.82
2023-04-04T00:50:00.814Z,-0.88
2023-04-04T00:52:28.850Z,-0.90
2023-04-04T00:54:57.045Z,-0.88
2023-04-04T00:57:25.519Z,-0.87
2023-04-04T00:59:53.372Z,-0.86
2023-04-04T01:02:22.596Z,-0.90
2023-04-04T01:04:50.332Z,-0.92
2023-04-04T01:07:18.200Z,-0.91
2023-04-04T01:09:46.036Z,-0.94
2023-04-04T01:12:13.861Z,-0.96
2023-04-04T01:14:41.605Z,-0.95
2023-04-04T01:17:09.493Z,-0.96
2023-04-04T01:19:44.841Z,-0.98
2023-04-04T01:22:13.716Z,-1.00
2023-04-04T01:24:43.431Z,-1.03
2023-04-04T01:27:13.376Z,-1.04
2023-04-04T01:29:41.427Z,-1.06
2023-04-04T01:32:14.173Z,-1.06
2023-04-04T01:34:45.803Z,-1.10
2023-04-04T01:37:19.648Z,-1.08
2023-04-04T01:39:50.438Z,-1.12
2023-04-04T01:42:20.842Z,-1.12
2023-04-04T01:44:48.965Z,-1.12
2023-04-04T01:47:17.025Z,-1.13
2023-04-04T01:49:45.110Z,-1.12
2023-04-04T01:52:13.068Z,-1.15
2023-04-04T01:54:40.966Z,-1.17
2023-04-04T01:57:08.774Z,-1.18
2023-04-04T01:59:37.891Z,-1.22
2023-04-04T02:02:05.860Z,-1.23
2023-04-04T02:04:34.074Z,-1.21
2023-04-04T02:07:02.570Z,-1.23
2023-04-04T02:09:30.370Z,-1.20
2023-04-04T02:11:58.266Z,-1.16
2023-04-04T02:14:26.035Z,-1.18
2023-04-04T02:16:55.252Z,-1.20
2023-04-04T02:19:23.146Z,-1.17
2023-04-04T02:21:50.912Z,-1.16
2023-04-04T02:24:18.869Z,-1.16
2023-04-04T02:26:46.817Z,-1.17
2023-04-04T02:29:14.594Z,-1.17
2023-04-04T02:31:42.504Z,-1.18
2023-04-04T02:34:11.755Z,-1.23
2023-04-04T02:36:39.505Z,-1.26
2023-04-04T02:39:07.313Z,-1.26
2023-04-04T02:41:35.078Z,-1.27
2023-04-04T02:44:02.857Z,-1.31
2023-04-04T02:46:30.665Z,-1.30
2023-04-04T02:48:58.469Z,-1.29
2023-04-04T02:51:27.844Z,-1.33
2023-04-04T02:53:55.925Z,-1.33
2023-04-04T02:56:23.704Z,-1.39
2023-04-04T02:58:51.509Z,-1.42
2023-04-04T03:01:19.457Z,-1.43
2023-04-04T03:03:47.940Z,-1.43
2023-04-04T03:06:15.953Z,-1.46
2023-04-04T03:08:45.148Z,-1.44
2023-04-04T03:11:13.479Z,-1.50
2023-04-04T03:13:41.548Z,-1.44
2023-04-04T03:16:09.694Z,-1.46
2023-04-04T03:18:37.521Z,-1.47
2023-04-04T03:21:05.308Z,-1.47
2023-04-04T03:23:33.444Z,-1.49
2023-04-04T03:26:02.867Z,-1.53
2023-04-04T03:28:30.708Z,-1.55
2023-04-04T03:30:58.806Z,-1.52
2023-04-04T03:33:27.546Z,-1.54
2023-04-04T03:35:55.528Z,-1.53
2023-04-04T03:38:23.440Z,-1.53
2023-04-04T03:40:51.425Z,-1.56
2023-04-04T03:43:20.582Z,-1.56
2023-04-04T03:45:49.331Z,-1.58
2023-04-04T03:48:17.803Z,-1.54
2023-04-04T03:50:45.587Z,-1.59
2023-04-04T03:53:13.399Z,-1.62
2023-04-04T03:55:42.094Z,-1.62
2023-04-04T03:58:09.970Z,-1.63
2023-04-04T04:00:39.297Z,-1.63
2023-04-04T04:03:07.344Z,-1.61
2023-04-04T04:05:35.381Z,-1.61
2023-04-04T04:08:03.459Z,-1.62
2023-04-04T04:10:31.298Z,-1.63
2023-04-04T04:12:59.829Z,-1.68
2023-04-04T04:15:27.748Z,-1.71
2023-04-04T04:17:57.049Z,-1.72
2023-04-04T04:20:24.890Z,-1.75
2023-04-04T04:22:54.300Z,-1.75
2023-04-04T04:25:22.318Z,-1.79
2023-04-04T04:27:50.140Z,-1.78
2023-04-04T04:30:18.005Z,-1.80
2023-04-04T04:32:45.939Z,-1.78
2023-04-04T04:35:15.265Z,-1.82
2023-04-04T04:37:43.154Z,-1.82
2023-04-04T04:40:11.788Z,-1.85
2023-04-04T04:42:45.013Z,-1.84
2023-04-04T04:45:13.171Z,-1.81
2023-04-04T04:47:41.040Z,-1.81
2023-04-04T04:50:09.666Z,-1.80
2023-04-04T04:52:39.393Z,-1.80
2023-04-04T04:55:08.521Z,-1.80
2023-04-04T04:57:36.595Z,-1.81
2023-04-04T05:00:05.025Z,-1.92
2023-04-04T05:02:32.905Z,-1.83
2023-04-04T05:05:00.791Z,-1.78
2023-04-04T05:07:28.781Z,-1.77
2023-04-04T05:09:57.998Z,-1.76
2023-04-04T05:12:25.753Z,-1.78
2023-04-04T05:14:53.926Z,-1.78
2023-04-04T05:17:23.082Z,-1.73
2023-04-04T05:19:51.789Z,-1.68
2023-04-04T05:22:19.595Z,-1.59
2023-04-04T05:24:47.397Z,-1.51
2023-04-04T05:27:16.674Z,-1.45
2023-04-04T05:29:44.511Z,-1.38
2023-04-04T05:32:12.390Z,-1.34
2023-04-04T05:34:40.447Z,-1.32
2023-04-04T05:37:08.608Z,-1.29
2023-04-04T05:39:36.790Z,-1.24
2023-04-04T05:42:04.788Z,-1.23
2023-04-04T05:44:33.977Z,-1.17
2023-04-04T05:47:01.739Z,-1.12
2023-04-04T05:49:29.565Z,-1.11
2023-04-04T05:51:57.459Z,-1.08
2023-04-04T05:54:25.324Z,-0.99
2023-04-04T05:56:53.150Z,-0.95
2023-04-04T05:59:21.213Z,-0.87
2023-04-04T06:01:50.843Z,-0.76
2023-04-04T06:04:18.900Z,-0.67
2023-04-04T06:06:46.963Z,-0.61
2023-04-04T06:09:14.776Z,-0.53
2023-04-04T06:11:42.573Z,-0.41
2023-04-04T06:14:10.472Z,-0.33
2023-04-04T06:16:38.593Z,-0.19
2023-04-04T06:19:07.837Z,-0.10
2023-04-04T06:21:35.696Z,-0.04
2023-04-04T06:24:03.558Z,0.03
2023-04-04T06:26:31.342Z,-0.01
2023-04-04T06:28:59.174Z,0.07
2023-04-04T06:31:27.347Z,0.12
2023-04-04T06:33:55.376Z,0.19
2023-04-04T06:36:24.845Z,0.29
2023-04-04T06:38:52.686Z,0.31
2023-04-04T06:41:20.550Z,0.36
2023-04-04T06:43:48.722Z,0.36
2023-04-04T06:46:16.580Z,0.50
2023-04-04T06:48:45.020Z,0.54
2023-04-04T06:51:13.229Z,0.60
2023-04-04T06:53:42.672Z,0.61
2023-04-04T06:56:10.897Z,0.57
2023-04-04T06:58:39.666Z,0.57
2023-04-04T07:01:07.548Z,0.61
2023-04-04T07:03:35.699Z,0.66
2023-04-04T07:06:04.345Z,0.72
2023-04-04T07:08:36.223Z,0.80
2023-04-04T07:11:06.419Z,0.77
2023-04-04T07:13:35.213Z,0.81
2023-04-04T07:16:03.459Z,0.98
2023-04-04T07:18:31.510Z,1.00
2023-04-04T07:20:59.620Z,1.15
2023-04-04T07:23:27.479Z,1.24
2023-04-04T07:25:55.322Z,1.34
2023-04-04T07:28:24.543Z,1.48
2023-04-04T07:30:52.412Z,1.69
2023-04-04T07:33:20.233Z,1.90
2023-04-04T07:35:48.602Z,1.95
2023-04-04T07:38:16.429Z,1.82
2023-04-04T07:40:44.259Z,1.92
2023-04-04T07:43:12.187Z,2.12
2023-04-04T07:45:41.446Z,2.20
2023-04-04T07:48:09.376Z,2.31
2023-04-04T07:50:37.534Z,2.39
2023-04-04T07:53:05.579Z,2.33
2023-04-04T07:55:33.442Z,2.38
2023-04-04T07:58:01.221Z,2.38
2023-04-04T08:00:29.053Z,2.27
2023-04-04T08:02:59.498Z,2.22
2023-04-04T08:05:27.374Z,2.46
2023-04-04T08:07:55.243Z,2.42
2023-04-04T08:10:23.040Z,2.13
2023-04-04T08:12:50.835Z,2.31
2023-04-04T08:15:18.858Z,2.52
2023-04-04T08:17:46.682Z,2.60
2023-04-04T08:20:16.240Z,2.94
2023-04-04T08:22:44.315Z,3.09
2023-04-04T08:25:12.752Z,3.27
2023-04-04T08:27:44.053Z,3.40
2023-04-04T08:30:13.574Z,3.51
2023-04-04T08:32:42.086Z,3.60
2023-04-04T08:35:10.722Z,3.62
2023-04-04T08:37:40.142Z,3.47
2023-04-04T08:40:09.386Z,3.21
2023-04-04T08:42:37.431Z,3.15
2023-04-04T08:45:06.149Z,3.51
2023-04-04T08:47:36.053Z,3.75
2023-04-04T08:50:07.397Z,4.31
2023-04-04T08:52:36.082Z,4.33
2023-04-04T08:55:06.277Z,4.45
2023-04-04T08:57:34.351Z,4.68
2023-04-04T09:00:06.188Z,3.72
2023-04-04T09:02:38.531Z,4.21
2023-04-04T09:05:08.509Z,4.38
2023-04-04T09:07:38.911Z,4.21
2023-04-04T09:10:11.771Z,3.61
2023-04-04T09:12:41.495Z,3.70
2023-04-04T09:15:10.502Z,3.87
2023-04-04T09:17:38.501Z,3.87
2023-04-04T09:20:38.170Z,3.95
2023-04-04T09:23:07.871Z,4.31
2023-04-04T09:25:37.783Z,4.38
2023-04-04T09:28:06.248Z,4.50
2023-04-04T09:30:35.745Z,4.19
2023-04-04T09:33:06.205Z,4.61
2023-04-04T09:35:35.978Z,4.90
2023-04-04T09:38:03.840Z,5.40
2023-04-04T09:40:32.164Z,5.75
2023-04-04T09:43:03.363Z,5.19
2023-04-04T09:45:32.603Z,5.68
2023-04-04T09:48:01.167Z,6.08
2023-04-04T09:50:30.448Z,6.33
2023-04-04T09:53:00.213Z,6.44
2023-04-04T09:55:33.203Z,6.51
2023-04-04T09:58:12.801Z,6.88
2023-04-04T10:00:45.085Z,6.80
2023-04-04T10:03:15.229Z,7.35
2023-04-04T10:05:43.134Z,7.81
2023-04-04T10:08:18.679Z,7.30
2023-04-04T10:10:58.808Z,6.69
2023-04-04T10:13:40.708Z,6.97
2023-04-04T10:16:10.763Z,6.86
2023-04-04T10:18:39.284Z,6.95
2023-04-04T10:23:39.974Z,7.31
2023-04-04T10:26:07.849Z,7.22
2023-04-04T10:28:37.769Z,7.24
2023-04-04T10:31:09.142Z,7.66
2023-04-04T10:33:42.168Z,8.07
2023-04-04T10:36:13.359Z,8.56
2023-04-04T10:38:43.804Z,7.06
2023-04-04T10:41:13.732Z,6.96
2023-04-04T10:43:43.326Z,7.32
2023-04-04T10:46:13.539Z,7.36
2023-04-04T10:48:42.491Z,7.95
2023-04-04T10:51:11.700Z,8.32
2023-04-04T10:53:40.877Z,8.55
2023-04-04T10:56:09.130Z,8.81
2023-04-04T10:58:42.663Z,8.94
2023-04-04T11:01:11.248Z,9.11
2023-04-04T11:04:19.580Z,9.14
2023-04-04T11:07:12.729Z,8.44
2023-04-04T11:09:56.695Z,8.00
2023-04-04T11:12:29.956Z,7.17
2023-04-04T11:15:08.897Z,7.54
2023-04-04T11:18:04.010Z,8.10
2023-04-04T11:20:38.303Z,8.11
2023-04-04T11:23:08.901Z,7.77
2023-04-04T11:25:38.860Z,8.71
2023-04-04T11:28:09.703Z,9.17
2023-04-04T11:30:44.781Z,9.26
2023-04-04T11:33:14.384Z,8.88
2023-04-04T11:35:42.978Z,8.92
2023-04-04T11:38:15.023Z,9.01
2023-04-04T11:40:43.751Z,8.79
2023-04-04T11:43:12.995Z,8.71
2023-04-04T11:45:46.675Z,8.90
2023-04-04T11:48:17.001Z,8.43
2023-04-04T11:50:49.663Z,7.71
2023-04-04T11:53:17.689Z,7.79
2023-04-04T11:55:50.174Z,8.54
2023-04-04T11:58:18.647Z,9.26
2023-04-04T12:00:48.000Z,9.43
2023-04-04T12:03:18.483Z,9.30
2023-04-04T12:05:47.733Z,9.55
2023-04-04T12:08:16.059Z,10.07
2023-04-04T12:10:44.467Z,10.24
2023-04-04T12:13:13.240Z,10.75
2023-04-04T12:15:41.395Z,10.91
2023-04-04T12:18:11.277Z,10.89
2023-04-04T12:20:41.121Z,11.21
2023-04-04T12:23:09.662Z,10.37
2023-04-04T12:25:40.344Z,10.24
2023-04-04T12:28:08.684Z,10.57
2023-04-04T12:30:36.763Z,10.59
2023-04-04T12:33:04.926Z,9.73
2023-04-04T12:35:34.502Z,9.85
2023-04-04T12:38:03.647Z,10.25
2023-04-04T12:40:33.722Z,10.78
2023-04-04T12:43:02.625Z,11.57
2023-04-04T12:45:30.840Z,11.21
2023-04-04T12:47:59.198Z,10.56
2023-04-04T12:50:29.013Z,9.45
2023-04-04T12:53:23.899Z,9.46
2023-04-04T12:55:50.442Z,9.44
2023-04-04T12:58:19.136Z,9.97
2023-04-04T13:00:47.069Z,10.51
2023-04-04T13:03:15.679Z,10.71
2023-04-04T13:05:44.582Z,11.22
2023-04-04T13:08:13.756Z,10.60
2023-04-04T13:11:00.261Z,11.23
2023-04-04T13:13:35.668Z,11.65
2023-04-04T13:16:04.500Z,11.69
2023-04-04T13:18:38.377Z,11.52
2023-04-04T13:21:08.534Z,11.25
2023-04-04T13:23:39.826Z,10.41
2023-04-04T13:26:08.934Z,10.27
2023-04-04T13:28:37.254Z,10.30
2023-04-04T13:31:05.617Z,10.51
2023-04-04T13:33:33.749Z,11.40
2023-04-04T13:36:01.938Z,11.18
2023-04-04T13:38:30.662Z,11.56
2023-04-04T13:41:00.222Z,11.78
2023-04-04T13:43:28.321Z,11.52
2023-04-04T13:45:56.470Z,11.69
2023-04-04T13:48:24.344Z,12.51
2023-04-04T13:50:53.175Z,12.70
2023-04-04T13:53:21.421Z,12.76
2023-04-04T13:58:21.393Z,12.66
2023-04-04T14:00:49.796Z,12.55
2023-04-04T14:03:18.164Z,12.50
2023-04-04T14:05:46.429Z,12.35
2023-04-04T14:08:14.639Z,12.22
2023-04-04T14:10:42.454Z,11.74
2023-04-04T14:13:10.268Z,11.99
2023-04-04T14:15:40.858Z,12.73
2023-04-04T14:18:08.935Z,13.16
2023-04-04T14:20:37.289Z,13.67
2023-04-04T14:23:05.532Z,14.21
2023-04-04T14:25:33.446Z,14.24
2023-04-04T14:28:01.408Z,12.40
2023-04-04T14:30:29.176Z,12.83
2023-04-04T14:32:58.266Z,13.02
2023-04-04T14:35:26.087Z,13.53
2023-04-04T14:37:55.192Z,13.53
2023-04-04T14:40:23.767Z,12.88
2023-04-04T14:42:51.674Z,11.45
2023-04-04T14:45:19.580Z,11.93
2023-04-04T14:47:47.413Z,12.57
2023-04-04T14:50:16.643Z,12.62
2023-04-04T14:52:44.556Z,12.19
2023-04-04T14:55:12.454Z,11.04
2023-04-04T14:57:57.186Z,11.49
2023-04-04T15:00:28.481Z,11.61
2023-04-04T15:02:56.687Z,11.93
2023-04-04T15:05:27.319Z,12.40
2023-04-04T15:07:55.740Z,12.98
2023-04-04T15:10:24.021Z,12.52
2023-04-04T15:12:51.852Z,12.58
2023-04-04T15:15:20.554Z,13.30
2023-04-04T15:17:49.383Z,13.89
2023-04-04T15:20:18.535Z,12.90
2023-04-04T15:22:47.717Z,12.67
2023-04-04T15:25:15.518Z,12.58
2023-04-04T15:27:43.251Z,12.68
2023-04-04T15:30:11.772Z,12.83
2023-04-04T15:32:39.564Z,12.58
2023-04-04T15:35:08.538Z,12.11
2023-04-04T15:37:36.329Z,12.37
2023-04-04T15:40:06.185Z,12.32
2023-04-04T15:42:33.961Z,12.76
2023-04-04T15:45:01.753Z,13.01
2023-04-04T15:47:29.540Z,13.09
2023-04-04T15:49:57.355Z,13.39
2023-04-04T15:52:25.135Z,12.97
2023-04-04T15:54:53.308Z,12.95
2023-04-04T15:57:22.453Z,13.17
2023-04-04T15:59:50.689Z,13.39
2023-04-04T16:02:18.483Z,12.97
2023-04-04T16:04:46.399Z,13.44
2023-04-04T16:07:14.197Z,13.54
2023-04-04T16:09:42.194Z,13.59
2023-04-04T16:12:09.973Z,13.23
2023-04-04T16:14:39.112Z,12.54
2023-04-04T16:17:06.883Z,12.11
2023-04-04T16:19:34.692Z,12.19
2023-04-04T16:22:02.724Z,12.22
2023-04-04T16:24:30.528Z,12.07
2023-04-04T16:26:58.282Z,11.75
2023-04-04T16:29:26.248Z,12.39
2023-04-04T16:31:56.090Z,12.36
2023-04-04T16:34:23.837Z,12.72
2023-04-04T16:36:51.644Z,12.81
2023-04-04T16:39:19.452Z,12.89
2023-04-04T16:41:47.300Z,12.80
2023-04-04T16:44:15.770Z,12.27
2023-04-04T16:46:43.744Z,12.26
2023-04-04T16:49:12.908Z,12.26
2023-04-04T16:51:40.731Z,12.32
2023-04-04T16:54:08.476Z,12.48
2023-04-04T16:56:36.392Z,12.47
2023-04-04T16:59:04.221Z,12.37
2023-04-04T17:01:32.353Z,12.24
2023-04-04T17:04:00.501Z,12.21
2023-04-04T17:06:29.731Z,12.21
2023-04-04T17:08:57.762Z,11.95
2023-04-04T17:11:25.599Z,11.75
2023-04-04T17:13:53.924Z,11.74
2023-04-04T17:16:23.426Z,11.62
2023-04-04T17:18:51.518Z,11.73
2023-04-04T17:21:19.682Z,11.61
2023-04-04T17:23:49.150Z,11.61
2023-04-04T17:26:17.201Z,11.52
2023-04-04T17:28:44.958Z,11.45
2023-04-04T17:31:12.741Z,11.36
2023-04-04T17:33:41.380Z,11.22
2023-04-04T17:36:09.600Z,11.25
2023-04-04T17:38:39.277Z,11.01
2023-04-04T17:41:08.725Z,10.74
2023-04-04T17:43:36.482Z,10.38
2023-04-04T17:46:06.670Z,10.05
2023-04-04T17:48:36.765Z,9.79
2023-04-04T17:51:06.870Z,9.48
2023-04-04T17:53:35.808Z,9.19
2023-04-04T17:56:03.626Z,8.84
2023-04-04T17:58:32.760Z,8.56
2023-04-04T18:01:02.765Z,8.38
2023-04-04T18:03:30.609Z,8.25
2023-04-04T18:05:58.502Z,8.11
2023-04-04T18:08:26.377Z,7.94
2023-04-04T18:10:54.211Z,7.92
2023-04-04T18:13:22.011Z,7.86
2023-04-04T18:15:51.734Z,7.71
2023-04-04T18:18:21.254Z,7.60
2023-04-04T18:20:49.176Z,7.53
2023-04-04T18:23:17.633Z,7.45
2023-04-04T18:25:45.645Z,7.39
2023-04-04T18:28:13.996Z,7.31
2023-04-04T18:30:42.063Z,7.08
2023-04-04T18:33:12.090Z,6.88
2023-04-04T18:35:39.894Z,6.81
2023-04-04T18:38:07.687Z,6.78
2023-04-04T18:40:35.491Z,6.72
2023-04-04T18:43:03.996Z,6.56
2023-04-04T18:45:39.227Z,6.47
2023-04-04T18:48:08.460Z,6.39
2023-04-04T18:50:38.021Z,6.26
2023-04-04T18:53:05.801Z,6.18
2023-04-04T18:55:33.603Z,6.11
2023-04-04T18:58:01.388Z,6.08
2023-04-04T19:00:29.270Z,5.99
2023-04-04T19:02:57.771Z,5.91
2023-04-04T19:05:25.708Z,5.80
2023-04-04T19:07:55.311Z,5.77
2023-04-04T19:10:23.426Z,5.77
2023-04-04T19:12:51.204Z,5.73
2023-04-04T19:15:19.290Z,5.61
2023-04-04T19:17:47.435Z,5.58
2023-04-04T19:20:15.234Z,5.53
2023-04-04T19:22:43.011Z,5.39
2023-04-04T19:25:12.183Z,5.30
2023-04-04T19:27:40.193Z,5.25
2023-04-04T19:30:34.561Z,5.15
2023-04-04T19:33:03.307Z,5.15
2023-04-04T19:35:53.729Z,5.03
2023-04-04T19:38:24.729Z,4.92
2023-04-04T19:40:57.070Z,4.93
2023-04-04T19:43:25.352Z,4.90
2023-04-04T19:45:54.112Z,4.87
2023-04-04T19:48:44.737Z,4.75
2023-04-04T19:51:42.741Z,4.70
2023-04-04T19:54:15.168Z,4.66
2023-04-04T19:56:46.535Z,4.49
2023-04-04T19:59:46.594Z,4.49
2023-04-04T20:02:34.955Z,4.43
2023-04-04T20:05:03.242Z,4.39
2023-04-04T20:07:31.361Z,4.27
2023-04-04T20:09:59.263Z,4.26
2023-04-04T20:12:29.719Z,4.23
2023-04-04T20:15:00.724Z,4.16
2023-04-04T20:17:29.369Z,4.14
2023-04-04T20:19:57.296Z,4.08
2023-04-04T20:22:26.961Z,3.99
2023-04-04T20:24:54.987Z,3.91
2023-04-04T20:27:25.335Z,3.85
2023-04-04T20:29:55.101Z,3.84
2023-04-04T20:32:23.461Z,3.77
2023-04-04T20:34:51.310Z,3.73
2023-04-04T20:37:22.283Z,3.54
2023-04-04T20:39:54.499Z,3.59
2023-04-04T20:42:40.237Z,3.54
2023-04-04T20:45:36.021Z,3.50
2023-04-04T20:48:07.402Z,3.48
2023-04-04T20:50:45.666Z,3.47
2023-04-04T20:53:19.297Z,3.40
2023-04-04T20:55:47.198Z,3.39
2023-04-04T20:58:28.347Z,3.31
2023-04-04T21:00:58.782Z,3.26
2023-04-04T21:03:37.691Z,3.27
2023-04-04T21:06:14.647Z,3.22
2023-04-04T21:08:47.442Z,3.18
2023-04-04T21:11:22.078Z,3.15
2023-04-04T21:13:50.105Z,3.08
2023-04-04T21:16:23.528Z,3.09
2023-04-04T21:18:57.985Z,3.11
2023-04-04T21:21:26.438Z,3.05
2023-04-04T21:23:55.051Z,3.01
2023-04-04T21:26:31.991Z,2.94
2023-04-04T21:29:01.211Z,2.94
2023-04-04T21:31:36.191Z,2.90
2023-04-04T21:34:12.869Z,2.88
2023-04-04T21:36:41.547Z,2.82
2023-04-04T21:39:12.905Z,2.78
2023-04-04T21:41:41.716Z,2.76
2023-04-04T21:44:10.750Z,2.70
2023-04-04T21:46:41.640Z,2.69
2023-04-04T21:49:09.934Z,2.69
2023-04-04T21:51:38.165Z,2.61
2023-04-04T21:54:06.399Z,2.62
2023-04-04T21:56:34.495Z,2.61
2023-04-04T21:59:04.046Z,2.60
2023-04-04T22:01:32.829Z,2.52
2023-04-04T22:04:03.088Z,2.54
2023-04-04T22:06:31.323Z,2.50
2023-04-04T22:09:02.150Z,2.43
2023-04-04T22:11:30.391Z,2.47
2023-04-04T22:14:04.801Z,2.44
2023-04-04T22:16:37.012Z,2.43
2023-04-04T22:19:07.848Z,2.44
2023-04-04T22:21:36.786Z,2.44
2023-04-04T22:24:06.432Z,2.45
2023-04-04T22:26:34.799Z,2.42
2023-04-04T22:29:05.326Z,2.46
2023-04-04T22:31:35.196Z,2.43
2023-04-04T22:34:04.103Z,2.40
2023-04-04T22:36:34.395Z,2.34
2023-04-04T22:39:02.966Z,2.36
2023-04-04T22:41:30.843Z,2.34
2023-04-04T22:43:59.178Z,2.32
2023-04-04T22:46:29.308Z,2.30
2023-04-04T22:49:06.006Z,2.30
2023-04-04T22:51:45.597Z,2.25
2023-04-04T22:54:16.400Z,2.30
2023-04-04T22:56:44.711Z,2.25
2023-04-04T22:59:12.885Z,2.24
2023-04-04T23:01:41.083Z,2.21
2023-04-04T23:04:09.245Z,2.19
2023-04-04T23:06:38.775Z,2.14
2023-04-04T23:09:07.919Z,2.10
2023-04-04T23:11:36.005Z,2.11
2023-04-04T23:14:08.503Z,2.08
2023-04-04T23:16:36.611Z,2.01
2023-04-04T23:19:05.001Z,1.98
2023-04-04T23:21:32.829Z,2.00
2023-04-04T23:24:02.008Z,1.97
2023-04-04T23:26:29.760Z,1.90
2023-04-04T23:28:57.517Z,1.85
2023-04-04T23:31:25.928Z,1.81
2023-04-04T23:33:53.744Z,1.76
2023-04-04T23:36:21.591Z,1.73
2023-04-04T23:38:49.410Z,1.72
2023-04-04T23:41:18.865Z,1.67
2023-04-04T23:43:46.995Z,1.65
2023-04-04T23:46:15.531Z,1.63
2023-04-04T23:48:43.405Z,1.61
2023-04-04T23:51:12.205Z,1.56
2023-04-04T23:53:39.973Z,1.55
2023-04-04T23:56:08.206Z,1.55
2023-04-04T23:58:38.319Z,1.53
